TimeCST,TemperatureF,Dew PointF,Humidity,Sea Level PressureIn,VisibilityMPH,Wind Direction,Wind SpeedMPH,Gust SpeedMPH,PrecipitationIn,Events,Conditions,WindDirDegrees,DateUTC
12:52 AM,26.1,21.9,84,30.30,8.0,North,10.4,-,N/A,,Clear,360,2013-01-15 06:52:00
1:52 AM,25.0,21.9,88,30.31,8.0,North,10.4,-,N/A,,Clear,10,2013-01-15 07:52:00
2:52 AM,25.0,21.9,88,30.31,8.0,North,10.4,-,N/A,,Partly Cloudy,10,2013-01-15 08:52:00
4:05 AM,24.8,21.2,86,30.27,7.0,NNE,9.2,-,N/A,,Partly Cloudy,20,2013-01-15 10:05:00
4:52 AM,25.0,21.9,88,30.29,7.0,ENE,5.8,-,N/A,,Clear,60,2013-01-15 10:52:00
5:52 AM,25.0,21.9,88,30.28,7.0,NE,5.8,-,N/A,,Clear,40,2013-01-15 11:52:00
6:40 AM,24.8,21.2,86,30.26,7.0,NE,5.8,-,N/A,,Partly Cloudy,40,2013-01-15 12:40:00
6:52 AM,25.0,21.9,88,30.28,7.0,NNE,8.1,-,N/A,,Partly Cloudy,30,2013-01-15 12:52:00
7:14 AM,24.8,21.2,86,30.26,6.0,NE,6.9,-,N/A,,Mostly Cloudy,40,2013-01-15 13:14:00
7:52 AM,26.1,23.0,88,30.28,5.0,NE,9.2,-,N/A,,Overcast,40,2013-01-15 13:52:00
8:52 AM,27.0,23.0,85,30.29,6.0,NNE,11.5,-,N/A,,Overcast,30,2013-01-15 14:52:00
9:52 AM,28.0,24.1,85,30.27,6.0,NNE,8.1,-,N/A,,Overcast,30,2013-01-15 15:52:00
10:31 AM,28.4,24.8,86,30.23,6.0,NNE,9.2,-,N/A,,Overcast,30,2013-01-15 16:31:00
10:44 AM,28.4,24.8,86,30.22,6.0,NNE,10.4,-,N/A,,Overcast,30,2013-01-15 16:44:00
10:52 AM,30.0,25.0,82,30.22,6.0,NNE,10.4,-,N/A,,Haze,30,2013-01-15 16:52:00
11:17 AM,30.2,24.8,80,30.17,6.0,NE,10.4,-,N/A,,Haze,50,2013-01-15 17:17:00
11:52 AM,30.9,26.1,82,30.18,7.0,ENE,10.4,-,N/A,,Overcast,60,2013-01-15 17:52:00
12:52 PM,30.9,27.0,85,30.18,8.0,North,8.1,-,N/A,,Overcast,10,2013-01-15 18:52:00
1:52 PM,30.9,26.1,82,30.17,7.0,North,13.8,-,N/A,,Overcast,360,2013-01-15 19:52:00
2:52 PM,30.9,26.1,82,30.16,6.0,NNE,10.4,-,N/A,,Haze,20,2013-01-15 20:52:00
3:06 PM,30.2,26.6,86,30.15,6.0,NNE,10.4,-,N/A,,Haze,30,2013-01-15 21:06:00
3:14 PM,30.2,26.6,86,30.14,6.0,NNE,11.5,-,N/A,,Haze,30,2013-01-15 21:14:00
3:52 PM,30.9,26.1,82,30.16,5.0,NNE,10.4,-,0.00,,Overcast,20,2013-01-15 21:52:00
4:52 PM,30.9,27.0,85,30.17,3.0,North,9.2,-,0.01,,Overcast,360,2013-01-15 22:52:00
5:31 PM,30.2,26.6,86,30.14,4.0,North,9.2,-,0.02,Rain,Light Freezing Rain,10,2013-01-15 23:31:00
5:43 PM,30.2,26.6,86,30.12,4.0,NNE,11.5,-,0.03,Rain,Light Freezing Rain,20,2013-01-15 23:43:00
5:52 PM,30.9,28.0,89,30.14,4.0,NNE,11.5,-,0.03,Rain,Light Freezing Rain,20,2013-01-15 23:52:00
6:52 PM,30.9,28.0,89,30.12,3.0,NE,6.9,-,0.01,Rain,Light Freezing Rain,40,2013-01-16 00:52:00
7:14 PM,30.2,28.4,93,30.11,4.0,NNE,8.1,-,0.01,Rain,Light Freezing Rain,20,2013-01-16 01:14:00
7:35 PM,30.2,28.4,93,30.09,5.0,NE,5.8,-,0.01,,Overcast,40,2013-01-16 01:35:00
7:52 PM,30.9,28.0,89,30.11,5.0,NE,4.6,-,0.01,,Overcast,50,2013-01-16 01:52:00
8:11 PM,30.2,28.4,93,30.05,5.0,ENE,9.2,-,0.00,,Overcast,70,2013-01-16 02:11:00
8:37 PM,30.2,28.4,93,30.07,5.0,NE,6.9,-,0.00,,Overcast,40,2013-01-16 02:37:00
8:52 PM,30.9,28.9,92,30.08,5.0,NE,5.8,-,0.00,,Overcast,50,2013-01-16 02:52:00
9:02 PM,32.0,28.4,87,30.09,5.0,NNW,6.9,-,0.00,,Overcast,340,2013-01-16 03:02:00
9:22 PM,32.0,28.4,87,30.09,5.0,North,5.8,-,0.00,,Overcast,360,2013-01-16 03:22:00
9:52 PM,32.0,28.9,88,30.09,4.0,North,8.1,-,0.02,,Overcast,350,2013-01-16 03:52:00
10:11 PM,30.2,28.4,93,30.09,4.0,NNW,10.4,-,0.01,,Overcast,340,2013-01-16 04:11:00
10:35 PM,30.2,28.4,93,30.07,4.0,North,10.4,-,0.01,,Overcast,360,2013-01-16 04:35:00
10:52 PM,30.9,28.9,92,30.10,5.0,NNW,8.1,-,0.02,,Overcast,340,2013-01-16 04:52:00
11:15 PM,30.2,28.4,93,30.06,5.0,North,9.2,-,0.00,,Overcast,360,2013-01-16 05:15:00
11:22 PM,30.2,28.4,93,30.05,5.0,North,9.2,-,0.00,,Overcast,360,2013-01-16 05:22:00
11:34 PM,30.2,28.4,93,30.04,5.0,NNE,8.1,-,0.00,,Overcast,20,2013-01-16 05:34:00
11:52 PM,30.9,28.9,92,30.08,5.0,North,4.6,-,0.00,,Overcast,10,2013-01-16 05:52:00